sensor_id;sensor_type;location;lat;lon;timestamp;P1;durP1;ratioP1;P2;durP2;ratioP2
5785;SDS011;2919;48.630;9.000;2023-02-19T00:01:26;1.90;;;1.20;;
5785;SDS011;2919;48.630;9.000;2023-02-19T00:03:53;3.43;;;1.33;;
5785;SDS011;2919;48.630;9.000;2023-02-19T00:06:22;2.27;;;1.10;;
5785;SDS011;2919;48.630;9.000;2023-02-19T00:08:48;3.57;;;1.30;;
5785;SDS011;2919;48.630;9.000;2023-02-19T00:11:15;2.70;;;1.10;;
5785;SDS011;2919;48.630;9.000;2023-02-19T00:13:44;1.60;;;1.00;;
5785;SDS011;2919;48.630;9.000;2023-02-19T00:16:16;2.90;;;1.50;;
5785;SDS011;2919;48.630;9.000;2023-02-19T00:18:49;6.27;;;1.77;;
5785;SDS011;2919;48.630;9.000;2023-02-19T00:21:16;2.67;;;1.77;;
5785;SDS011;2919;48.630;9.000;2023-02-19T00:23:42;3.00;;;1.37;;
5785;SDS011;2919;48.630;9.000;2023-02-19T00:26:08;2.77;;;1.20;;
5785;SDS011;2919;48.630;9.000;2023-02-19T00:28:37;3.37;;;1.07;;
5785;SDS011;2919;48.630;9.000;2023-02-19T00:31:07;2.30;;;1.10;;
5785;SDS011;2919;48.630;9.000;2023-02-19T00:33:37;1.67;;;1.00;;
5785;SDS011;2919;48.630;9.000;2023-02-19T00:36:03;2.80;;;1.00;;
5785;SDS011;2919;48.630;9.000;2023-02-19T00:38:29;2.20;;;1.20;;
5785;SDS011;2919;48.630;9.000;2023-02-19T00:40:57;1.73;;;0.93;;
5785;SDS011;2919;48.630;9.000;2023-02-19T00:43:24;3.40;;;1.40;;
5785;SDS011;2919;48.630;9.000;2023-02-19T00:45:50;2.50;;;1.40;;
5785;SDS011;2919;48.630;9.000;2023-02-19T00:48:16;2.10;;;1.40;;
5785;SDS011;2919;48.630;9.000;2023-02-19T00:50:41;1.73;;;0.87;;
5785;SDS011;2919;48.630;9.000;2023-02-19T00:53:08;2.53;;;1.00;;
5785;SDS011;2919;48.630;9.000;2023-02-19T00:55:34;2.30;;;1.33;;
5785;SDS011;2919;48.630;9.000;2023-02-19T00:57:59;1.40;;;0.77;;
5785;SDS011;2919;48.630;9.000;2023-02-19T01:00:25;1.80;;;1.20;;
5785;SDS011;2919;48.630;9.000;2023-02-19T01:02:50;3.20;;;1.43;;
5785;SDS011;2919;48.630;9.000;2023-02-19T01:05:16;1.87;;;1.10;;
5785;SDS011;2919;48.630;9.000;2023-02-19T01:07:42;2.13;;;1.10;;
5785;SDS011;2919;48.630;9.000;2023-02-19T01:10:07;1.87;;;0.80;;
5785;SDS011;2919;48.630;9.000;2023-02-19T01:12:33;2.70;;;1.33;;
5785;SDS011;2919;48.630;9.000;2023-02-19T01:14:59;2.40;;;1.13;;
5785;SDS011;2919;48.630;9.000;2023-02-19T01:17:24;2.03;;;1.20;;
5785;SDS011;2919;48.630;9.000;2023-02-19T01:19:50;2.67;;;1.60;;
5785;SDS011;2919;48.630;9.000;2023-02-19T01:22:16;2.53;;;1.30;;
5785;SDS011;2919;48.630;9.000;2023-02-19T01:24:41;2.90;;;1.40;;
5785;SDS011;2919;48.630;9.000;2023-02-19T01:27:07;1.93;;;1.20;;
5785;SDS011;2919;48.630;9.000;2023-02-19T01:29:32;2.50;;;1.40;;
5785;SDS011;2919;48.630;9.000;2023-02-19T01:31:58;2.40;;;1.07;;
5785;SDS011;2919;48.630;9.000;2023-02-19T01:34:24;3.60;;;1.53;;
5785;SDS011;2919;48.630;9.000;2023-02-19T01:36:51;2.00;;;1.17;;
5785;SDS011;2919;48.630;9.000;2023-02-19T01:39:16;2.13;;;1.20;;
5785;SDS011;2919;48.630;9.000;2023-02-19T01:41:42;1.50;;;0.97;;
5785;SDS011;2919;48.630;9.000;2023-02-19T01:46:37;2.03;;;1.30;;
5785;SDS011;2919;48.630;9.000;2023-02-19T01:51:36;4.07;;;1.90;;
5785;SDS011;2919;48.630;9.000;2023-02-19T01:54:05;2.80;;;1.10;;
5785;SDS011;2919;48.630;9.000;2023-02-19T01:56:35;9.67;;;1.70;;
5785;SDS011;2919;48.630;9.000;2023-02-19T01:59:03;5.43;;;1.60;;
5785;SDS011;2919;48.630;9.000;2023-02-19T02:01:30;4.50;;;1.40;;
5785;SDS011;2919;48.630;9.000;2023-02-19T02:03:56;2.73;;;1.50;;
5785;SDS011;2919;48.630;9.000;2023-02-19T02:06:30;3.50;;;1.10;;
5785;SDS011;2919;48.630;9.000;2023-02-19T02:09:00;4.20;;;1.37;;
5785;SDS011;2919;48.630;9.000;2023-02-19T02:11:47;2.70;;;1.80;;
5785;SDS011;2919;48.630;9.000;2023-02-19T02:14:18;4.23;;;1.60;;
5785;SDS011;2919;48.630;9.000;2023-02-19T02:16:53;7.13;;;1.90;;
5785;SDS011;2919;48.630;9.000;2023-02-19T02:22:05;3.03;;;1.57;;
5785;SDS011;2919;48.630;9.000;2023-02-19T02:35:52;2.20;;;1.23;;
5785;SDS011;2919;48.630;9.000;2023-02-19T02:38:30;1.97;;;1.20;;
5785;SDS011;2919;48.630;9.000;2023-02-19T02:40:58;2.40;;;1.23;;
5785;SDS011;2919;48.630;9.000;2023-02-19T02:43:24;2.70;;;1.57;;
5785;SDS011;2919;48.630;9.000;2023-02-19T02:45:50;6.03;;;1.77;;
5785;SDS011;2919;48.630;9.000;2023-02-19T02:50:46;3.47;;;1.33;;
5785;SDS011;2919;48.630;9.000;2023-02-19T02:56:31;2.47;;;1.37;;
5785;SDS011;2919;48.630;9.000;2023-02-19T02:58:59;5.97;;;1.60;;
5785;SDS011;2919;48.630;9.000;2023-02-19T03:01:29;1.80;;;0.97;;
5785;SDS011;2919;48.630;9.000;2023-02-19T03:04:32;2.73;;;1.20;;
5785;SDS011;2919;48.630;9.000;2023-02-19T03:07:28;1.80;;;1.03;;
5785;SDS011;2919;48.630;9.000;2023-02-19T03:10:00;1.50;;;0.80;;
5785;SDS011;2919;48.630;9.000;2023-02-19T03:12:29;2.40;;;1.50;;
5785;SDS011;2919;48.630;9.000;2023-02-19T03:15:15;1.70;;;0.93;;
5785;SDS011;2919;48.630;9.000;2023-02-19T03:18:02;1.50;;;0.93;;
5785;SDS011;2919;48.630;9.000;2023-02-19T03:20:51;2.10;;;1.00;;
5785;SDS011;2919;48.630;9.000;2023-02-19T03:23:20;1.97;;;1.13;;
5785;SDS011;2919;48.630;9.000;2023-02-19T03:26:09;2.77;;;1.37;;
5785;SDS011;2919;48.630;9.000;2023-02-19T03:28:37;2.10;;;1.07;;
5785;SDS011;2919;48.630;9.000;2023-02-19T03:31:23;2.33;;;0.90;;
5785;SDS011;2919;48.630;9.000;2023-02-19T03:34:11;1.87;;;1.00;;
5785;SDS011;2919;48.630;9.000;2023-02-19T03:36:42;1.73;;;0.77;;
5785;SDS011;2919;48.630;9.000;2023-02-19T03:39:13;2.40;;;1.00;;
5785;SDS011;2919;48.630;9.000;2023-02-19T03:42:01;3.50;;;1.10;;
5785;SDS011;2919;48.630;9.000;2023-02-19T03:47:29;1.87;;;1.00;;
5785;SDS011;2919;48.630;9.000;2023-02-19T03:50:21;2.13;;;0.80;;
5785;SDS011;2919;48.630;9.000;2023-02-19T03:58:27;1.50;;;0.80;;
5785;SDS011;2919;48.630;9.000;2023-02-19T04:01:08;1.40;;;0.77;;
5785;SDS011;2919;48.630;9.000;2023-02-19T04:04:08;2.70;;;1.37;;
5785;SDS011;2919;48.630;9.000;2023-02-19T04:06:38;2.63;;;1.00;;
5785;SDS011;2919;48.630;9.000;2023-02-19T04:09:07;2.30;;;1.10;;
5785;SDS011;2919;48.630;9.000;2023-02-19T04:11:35;2.80;;;0.87;;
5785;SDS011;2919;48.630;9.000;2023-02-19T04:14:07;2.00;;;0.97;;
5785;SDS011;2919;48.630;9.000;2023-02-19T04:16:40;1.33;;;0.80;;
5785;SDS011;2919;48.630;9.000;2023-02-19T04:19:12;1.93;;;0.90;;
5785;SDS011;2919;48.630;9.000;2023-02-19T04:21:41;1.83;;;0.80;;
5785;SDS011;2919;48.630;9.000;2023-02-19T04:24:10;1.80;;;1.13;;
5785;SDS011;2919;48.630;9.000;2023-02-19T04:26:38;1.50;;;0.70;;
5785;SDS011;2919;48.630;9.000;2023-02-19T04:29:05;3.20;;;0.90;;
5785;SDS011;2919;48.630;9.000;2023-02-19T04:31:31;1.40;;;0.70;;
5785;SDS011;2919;48.630;9.000;2023-02-19T04:34:00;1.93;;;0.73;;
5785;SDS011;2919;48.630;9.000;2023-02-19T04:36:27;1.33;;;0.60;;
5785;SDS011;2919;48.630;9.000;2023-02-19T04:38:54;1.20;;;0.60;;
5785;SDS011;2919;48.630;9.000;2023-02-19T04:41:19;1.30;;;0.60;;
5785;SDS011;2919;48.630;9.000;2023-02-19T04:43:45;1.30;;;0.80;;
5785;SDS011;2919;48.630;9.000;2023-02-19T04:46:10;1.70;;;0.57;;
5785;SDS011;2919;48.630;9.000;2023-02-19T04:48:36;1.10;;;0.50;;
5785;SDS011;2919;48.630;9.000;2023-02-19T04:51:05;2.73;;;1.10;;
5785;SDS011;2919;48.630;9.000;2023-02-19T04:53:31;1.43;;;0.70;;
5785;SDS011;2919;48.630;9.000;2023-02-19T04:56:03;1.27;;;0.50;;
5785;SDS011;2919;48.630;9.000;2023-02-19T04:58:30;1.10;;;0.50;;
5785;SDS011;2919;48.630;9.000;2023-02-19T05:00:55;1.10;;;0.40;;
5785;SDS011;2919;48.630;9.000;2023-02-19T05:03:21;1.20;;;0.50;;
5785;SDS011;2919;48.630;9.000;2023-02-19T05:05:46;2.10;;;0.53;;
5785;SDS011;2919;48.630;9.000;2023-02-19T05:08:12;2.13;;;0.50;;
5785;SDS011;2919;48.630;9.000;2023-02-19T05:10:38;1.30;;;0.50;;
5785;SDS011;2919;48.630;9.000;2023-02-19T05:13:03;1.10;;;0.40;;
5785;SDS011;2919;48.630;9.000;2023-02-19T05:15:29;1.37;;;0.60;;
5785;SDS011;2919;48.630;9.000;2023-02-19T05:17:54;1.10;;;0.43;;
5785;SDS011;2919;48.630;9.000;2023-02-19T05:20:20;1.20;;;0.50;;
5785;SDS011;2919;48.630;9.000;2023-02-19T05:22:47;1.13;;;0.47;;
5785;SDS011;2919;48.630;9.000;2023-02-19T05:25:13;1.10;;;0.47;;
5785;SDS011;2919;48.630;9.000;2023-02-19T05:27:38;1.20;;;0.60;;
5785;SDS011;2919;48.630;9.000;2023-02-19T05:30:04;1.23;;;0.50;;
5785;SDS011;2919;48.630;9.000;2023-02-19T05:32:30;1.10;;;0.50;;
5785;SDS011;2919;48.630;9.000;2023-02-19T05:34:55;1.40;;;0.60;;
5785;SDS011;2919;48.630;9.000;2023-02-19T05:37:21;1.20;;;0.50;;
5785;SDS011;2919;48.630;9.000;2023-02-19T05:39:47;1.10;;;0.40;;
5785;SDS011;2919;48.630;9.000;2023-02-19T05:42:13;1.33;;;0.50;;
5785;SDS011;2919;48.630;9.000;2023-02-19T05:44:39;1.10;;;0.40;;
5785;SDS011;2919;48.630;9.000;2023-02-19T05:47:05;1.10;;;0.40;;
5785;SDS011;2919;48.630;9.000;2023-02-19T05:49:31;1.10;;;0.40;;
5785;SDS011;2919;48.630;9.000;2023-02-19T05:51:56;1.10;;;0.40;;
5785;SDS011;2919;48.630;9.000;2023-02-19T05:54:22;1.10;;;0.40;;
5785;SDS011;2919;48.630;9.000;2023-02-19T05:56:48;1.10;;;0.50;;
5785;SDS011;2919;48.630;9.000;2023-02-19T05:59:14;1.40;;;0.60;;
5785;SDS011;2919;48.630;9.000;2023-02-19T06:01:42;1.10;;;0.40;;
5785;SDS011;2919;48.630;9.000;2023-02-19T06:04:09;1.20;;;0.50;;
5785;SDS011;2919;48.630;9.000;2023-02-19T06:06:35;1.10;;;0.40;;
5785;SDS011;2919;48.630;9.000;2023-02-19T06:09:01;1.10;;;0.40;;
5785;SDS011;2919;48.630;9.000;2023-02-19T06:11:28;1.27;;;0.50;;
5785;SDS011;2919;48.630;9.000;2023-02-19T06:13:54;1.10;;;0.40;;
5785;SDS011;2919;48.630;9.000;2023-02-19T06:16:19;1.30;;;0.40;;
5785;SDS011;2919;48.630;9.000;2023-02-19T06:18:45;1.23;;;0.50;;
5785;SDS011;2919;48.630;9.000;2023-02-19T06:21:12;1.10;;;0.40;;
5785;SDS011;2919;48.630;9.000;2023-02-19T06:23:38;1.50;;;0.40;;
5785;SDS011;2919;48.630;9.000;2023-02-19T06:26:15;1.10;;;0.40;;
5785;SDS011;2919;48.630;9.000;2023-02-19T06:28:42;1.10;;;0.40;;
5785;SDS011;2919;48.630;9.000;2023-02-19T06:31:10;1.10;;;0.40;;
5785;SDS011;2919;48.630;9.000;2023-02-19T06:33:36;1.10;;;0.40;;
5785;SDS011;2919;48.630;9.000;2023-02-19T06:36:05;1.10;;;0.40;;
5785;SDS011;2919;48.630;9.000;2023-02-19T06:38:32;1.20;;;0.50;;
5785;SDS011;2919;48.630;9.000;2023-02-19T06:41:01;1.10;;;0.40;;
5785;SDS011;2919;48.630;9.000;2023-02-19T06:43:29;1.10;;;0.40;;
5785;SDS011;2919;48.630;9.000;2023-02-19T06:45:59;1.70;;;0.50;;
5785;SDS011;2919;48.630;9.000;2023-02-19T06:48:26;1.10;;;0.40;;
5785;SDS011;2919;48.630;9.000;2023-02-19T06:50:53;1.40;;;0.57;;
5785;SDS011;2919;48.630;9.000;2023-02-19T06:53:19;1.87;;;0.60;;
5785;SDS011;2919;48.630;9.000;2023-02-19T06:55:58;1.20;;;0.53;;
5785;SDS011;2919;48.630;9.000;2023-02-19T06:58:25;1.63;;;0.67;;
5785;SDS011;2919;48.630;9.000;2023-02-19T07:00:51;1.30;;;0.60;;
5785;SDS011;2919;48.630;9.000;2023-02-19T07:03:17;3.10;;;1.90;;
5785;SDS011;2919;48.630;9.000;2023-02-19T07:05:43;3.00;;;1.00;;
5785;SDS011;2919;48.630;9.000;2023-02-19T07:08:09;1.13;;;0.50;;
5785;SDS011;2919;48.630;9.000;2023-02-19T07:10:34;1.50;;;0.60;;
5785;SDS011;2919;48.630;9.000;2023-02-19T07:13:00;1.10;;;0.50;;
5785;SDS011;2919;48.630;9.000;2023-02-19T07:15:26;1.50;;;0.60;;
5785;SDS011;2919;48.630;9.000;2023-02-19T07:17:51;1.30;;;0.60;;
5785;SDS011;2919;48.630;9.000;2023-02-19T07:20:17;1.97;;;0.90;;
5785;SDS011;2919;48.630;9.000;2023-02-19T07:22:42;1.10;;;0.40;;
5785;SDS011;2919;48.630;9.000;2023-02-19T07:25:08;1.10;;;0.50;;
5785;SDS011;2919;48.630;9.000;2023-02-19T07:27:34;1.10;;;0.50;;
5785;SDS011;2919;48.630;9.000;2023-02-19T07:29:59;1.10;;;0.60;;
5785;SDS011;2919;48.630;9.000;2023-02-19T07:32:26;1.90;;;0.60;;
5785;SDS011;2919;48.630;9.000;2023-02-19T07:34:51;1.57;;;0.70;;
5785;SDS011;2919;48.630;9.000;2023-02-19T07:37:17;1.37;;;0.60;;
5785;SDS011;2919;48.630;9.000;2023-02-19T07:39:43;1.27;;;0.70;;
5785;SDS011;2919;48.630;9.000;2023-02-19T07:42:08;1.43;;;0.80;;
5785;SDS011;2919;48.630;9.000;2023-02-19T07:44:34;1.27;;;0.60;;
5785;SDS011;2919;48.630;9.000;2023-02-19T07:46:59;1.20;;;0.60;;
5785;SDS011;2919;48.630;9.000;2023-02-19T07:49:25;2.27;;;0.83;;
5785;SDS011;2919;48.630;9.000;2023-02-19T07:51:51;1.40;;;0.70;;
5785;SDS011;2919;48.630;9.000;2023-02-19T07:54:16;1.40;;;0.80;;
5785;SDS011;2919;48.630;9.000;2023-02-19T07:56:42;1.63;;;0.80;;
5785;SDS011;2919;48.630;9.000;2023-02-19T07:59:07;1.60;;;0.57;;
5785;SDS011;2919;48.630;9.000;2023-02-19T08:01:33;1.50;;;0.60;;
5785;SDS011;2919;48.630;9.000;2023-02-19T08:04:18;1.37;;;0.60;;
5785;SDS011;2919;48.630;9.000;2023-02-19T08:06:43;1.30;;;0.63;;
5785;SDS011;2919;48.630;9.000;2023-02-19T08:09:09;2.40;;;0.80;;
5785;SDS011;2919;48.630;9.000;2023-02-19T08:11:35;1.40;;;0.60;;
5785;SDS011;2919;48.630;9.000;2023-02-19T08:14:22;2.17;;;0.93;;
5785;SDS011;2919;48.630;9.000;2023-02-19T08:16:49;1.67;;;0.80;;
5785;SDS011;2919;48.630;9.000;2023-02-19T08:19:15;2.57;;;1.03;;
5785;SDS011;2919;48.630;9.000;2023-02-19T08:21:41;1.87;;;0.70;;
5785;SDS011;2919;48.630;9.000;2023-02-19T08:24:07;2.20;;;0.60;;
5785;SDS011;2919;48.630;9.000;2023-02-19T08:26:33;2.17;;;0.93;;
5785;SDS011;2919;48.630;9.000;2023-02-19T08:28:59;1.30;;;0.60;;
5785;SDS011;2919;48.630;9.000;2023-02-19T08:31:24;1.47;;;0.60;;
5785;SDS011;2919;48.630;9.000;2023-02-19T08:33:50;2.30;;;0.97;;
5785;SDS011;2919;48.630;9.000;2023-02-19T08:36:16;1.10;;;0.50;;
5785;SDS011;2919;48.630;9.000;2023-02-19T08:38:42;1.40;;;0.50;;
5785;SDS011;2919;48.630;9.000;2023-02-19T08:41:11;1.67;;;0.90;;
5785;SDS011;2919;48.630;9.000;2023-02-19T08:43:38;1.83;;;0.60;;
5785;SDS011;2919;48.630;9.000;2023-02-19T08:46:04;4.70;;;0.60;;
5785;SDS011;2919;48.630;9.000;2023-02-19T08:48:31;1.10;;;0.50;;
5785;SDS011;2919;48.630;9.000;2023-02-19T08:50:59;3.10;;;0.83;;
5785;SDS011;2919;48.630;9.000;2023-02-19T08:53:28;2.23;;;0.90;;
5785;SDS011;2919;48.630;9.000;2023-02-19T08:55:55;1.47;;;0.53;;
5785;SDS011;2919;48.630;9.000;2023-02-19T08:58:20;1.23;;;0.67;;
5785;SDS011;2919;48.630;9.000;2023-02-19T09:00:46;1.30;;;0.60;;
5785;SDS011;2919;48.630;9.000;2023-02-19T09:03:12;2.30;;;0.70;;
5785;SDS011;2919;48.630;9.000;2023-02-19T09:05:38;2.90;;;1.00;;
5785;SDS011;2919;48.630;9.000;2023-02-19T09:08:03;1.53;;;0.60;;
5785;SDS011;2919;48.630;9.000;2023-02-19T09:10:29;2.17;;;0.90;;
5785;SDS011;2919;48.630;9.000;2023-02-19T09:12:55;1.30;;;0.60;;
5785;SDS011;2919;48.630;9.000;2023-02-19T09:15:21;1.20;;;0.50;;
5785;SDS011;2919;48.630;9.000;2023-02-19T09:17:52;3.27;;;1.00;;
5785;SDS011;2919;48.630;9.000;2023-02-19T09:20:18;1.30;;;0.70;;
5785;SDS011;2919;48.630;9.000;2023-02-19T09:22:44;1.20;;;0.50;;
5785;SDS011;2919;48.630;9.000;2023-02-19T09:25:09;1.30;;;0.70;;
5785;SDS011;2919;48.630;9.000;2023-02-19T09:27:35;1.37;;;0.77;;
5785;SDS011;2919;48.630;9.000;2023-02-19T09:30:00;1.17;;;0.57;;
5785;SDS011;2919;48.630;9.000;2023-02-19T09:32:28;3.33;;;0.60;;
5785;SDS011;2919;48.630;9.000;2023-02-19T09:34:55;1.50;;;0.70;;
5785;SDS011;2919;48.630;9.000;2023-02-19T09:37:23;1.43;;;0.70;;
5785;SDS011;2919;48.630;9.000;2023-02-19T09:39:52;2.27;;;0.70;;
5785;SDS011;2919;48.630;9.000;2023-02-19T09:42:21;1.10;;;0.50;;
5785;SDS011;2919;48.630;9.000;2023-02-19T09:44:51;1.20;;;0.53;;
5785;SDS011;2919;48.630;9.000;2023-02-19T09:47:20;3.30;;;1.23;;
5785;SDS011;2919;48.630;9.000;2023-02-19T09:49:58;4.03;;;1.00;;
5785;SDS011;2919;48.630;9.000;2023-02-19T09:55:15;5.33;;;1.40;;
5785;SDS011;2919;48.630;9.000;2023-02-19T09:57:58;1.60;;;0.60;;
5785;SDS011;2919;48.630;9.000;2023-02-19T10:00:30;1.30;;;0.60;;
5785;SDS011;2919;48.630;9.000;2023-02-19T10:03:05;1.20;;;0.50;;
5785;SDS011;2919;48.630;9.000;2023-02-19T10:05:35;1.70;;;0.70;;
5785;SDS011;2919;48.630;9.000;2023-02-19T10:08:03;1.40;;;0.60;;
5785;SDS011;2919;48.630;9.000;2023-02-19T10:10:32;1.70;;;0.80;;
5785;SDS011;2919;48.630;9.000;2023-02-19T10:13:21;3.73;;;0.70;;
5785;SDS011;2919;48.630;9.000;2023-02-19T10:15:49;1.20;;;0.60;;
5785;SDS011;2919;48.630;9.000;2023-02-19T10:18:16;1.93;;;0.63;;
5785;SDS011;2919;48.630;9.000;2023-02-19T10:20:47;1.40;;;0.70;;
5785;SDS011;2919;48.630;9.000;2023-02-19T10:23:14;1.20;;;0.53;;
5785;SDS011;2919;48.630;9.000;2023-02-19T10:25:56;1.40;;;0.57;;
5785;SDS011;2919;48.630;9.000;2023-02-19T10:28:30;1.40;;;0.90;;
5785;SDS011;2919;48.630;9.000;2023-02-19T10:30:59;1.20;;;0.40;;
5785;SDS011;2919;48.630;9.000;2023-02-19T10:33:31;1.70;;;0.83;;
5785;SDS011;2919;48.630;9.000;2023-02-19T10:36:03;1.93;;;0.80;;
5785;SDS011;2919;48.630;9.000;2023-02-19T10:38:35;3.70;;;0.97;;
5785;SDS011;2919;48.630;9.000;2023-02-19T10:43:49;9.33;;;1.33;;
5785;SDS011;2919;48.630;9.000;2023-02-19T10:46:17;1.80;;;0.80;;
5785;SDS011;2919;48.630;9.000;2023-02-19T10:49:00;1.70;;;0.70;;
5785;SDS011;2919;48.630;9.000;2023-02-19T10:51:31;3.47;;;1.13;;
5785;SDS011;2919;48.630;9.000;2023-02-19T10:57:32;3.53;;;0.60;;
5785;SDS011;2919;48.630;9.000;2023-02-19T11:00:16;1.70;;;0.60;;
5785;SDS011;2919;48.630;9.000;2023-02-19T11:02:46;1.90;;;0.90;;
5785;SDS011;2919;48.630;9.000;2023-02-19T11:05:18;1.37;;;0.67;;
5785;SDS011;2919;48.630;9.000;2023-02-19T11:07:46;4.10;;;1.07;;
5785;SDS011;2919;48.630;9.000;2023-02-19T11:10:27;2.50;;;1.47;;
5785;SDS011;2919;48.630;9.000;2023-02-19T11:13:04;4.07;;;1.23;;
5785;SDS011;2919;48.630;9.000;2023-02-19T11:15:38;1.40;;;0.70;;
5785;SDS011;2919;48.630;9.000;2023-02-19T11:20:59;3.00;;;0.77;;
5785;SDS011;2919;48.630;9.000;2023-02-19T11:23:28;1.60;;;0.80;;
5785;SDS011;2919;48.630;9.000;2023-02-19T11:26:18;1.13;;;0.50;;
5785;SDS011;2919;48.630;9.000;2023-02-19T11:28:54;1.40;;;0.60;;
5785;SDS011;2919;48.630;9.000;2023-02-19T11:31:25;4.90;;;0.67;;
5785;SDS011;2919;48.630;9.000;2023-02-19T11:33:59;1.10;;;0.50;;
5785;SDS011;2919;48.630;9.000;2023-02-19T11:36:38;5.30;;;0.90;;
5785;SDS011;2919;48.630;9.000;2023-02-19T11:44:56;1.70;;;0.77;;
5785;SDS011;2919;48.630;9.000;2023-02-19T11:52:45;6.40;;;1.00;;
5785;SDS011;2919;48.630;9.000;2023-02-19T11:55:36;1.70;;;0.77;;
5785;SDS011;2919;48.630;9.000;2023-02-19T12:04:10;3.17;;;1.30;;
5785;SDS011;2919;48.630;9.000;2023-02-19T12:06:42;2.30;;;0.83;;
5785;SDS011;2919;48.630;9.000;2023-02-19T12:09:32;1.70;;;0.70;;
5785;SDS011;2919;48.630;9.000;2023-02-19T12:26:21;1.20;;;0.60;;
5785;SDS011;2919;48.630;9.000;2023-02-19T12:37:19;2.07;;;0.70;;
5785;SDS011;2919;48.630;9.000;2023-02-19T12:45:21;1.60;;;0.60;;
5785;SDS011;2919;48.630;9.000;2023-02-19T12:47:56;1.37;;;0.73;;
5785;SDS011;2919;48.630;9.000;2023-02-19T12:50:26;1.40;;;0.60;;
5785;SDS011;2919;48.630;9.000;2023-02-19T12:52:54;2.67;;;0.77;;
5785;SDS011;2919;48.630;9.000;2023-02-19T12:55:34;3.27;;;0.80;;
5785;SDS011;2919;48.630;9.000;2023-02-19T12:58:04;5.67;;;1.20;;
5785;SDS011;2919;48.630;9.000;2023-02-19T13:00:47;6.50;;;0.60;;
5785;SDS011;2919;48.630;9.000;2023-02-19T13:03:19;1.93;;;0.70;;
5785;SDS011;2919;48.630;9.000;2023-02-19T13:05:54;1.73;;;0.73;;
5785;SDS011;2919;48.630;9.000;2023-02-19T13:13:44;3.87;;;0.60;;
5785;SDS011;2919;48.630;9.000;2023-02-19T13:16:16;1.50;;;0.60;;
5785;SDS011;2919;48.630;9.000;2023-02-19T13:18:54;2.03;;;0.90;;
5785;SDS011;2919;48.630;9.000;2023-02-19T13:21:24;1.47;;;0.53;;
5785;SDS011;2919;48.630;9.000;2023-02-19T13:24:36;1.47;;;0.90;;
5785;SDS011;2919;48.630;9.000;2023-02-19T13:29:51;1.93;;;0.50;;
5785;SDS011;2919;48.630;9.000;2023-02-19T13:38:15;2.73;;;1.03;;
5785;SDS011;2919;48.630;9.000;2023-02-19T13:40:42;1.73;;;0.97;;
5785;SDS011;2919;48.630;9.000;2023-02-19T13:45:56;3.90;;;1.20;;
5785;SDS011;2919;48.630;9.000;2023-02-19T13:48:36;1.60;;;0.80;;
5785;SDS011;2919;48.630;9.000;2023-02-19T14:04:24;2.20;;;0.83;;
5785;SDS011;2919;48.630;9.000;2023-02-19T14:27:51;2.80;;;1.20;;
5785;SDS011;2919;48.630;9.000;2023-02-19T14:30:18;1.63;;;0.90;;
5785;SDS011;2919;48.630;9.000;2023-02-19T14:32:46;2.73;;;0.73;;
5785;SDS011;2919;48.630;9.000;2023-02-19T14:35:17;1.43;;;0.63;;
5785;SDS011;2919;48.630;9.000;2023-02-19T14:37:48;4.33;;;1.40;;
5785;SDS011;2919;48.630;9.000;2023-02-19T14:40:20;2.17;;;0.90;;
5785;SDS011;2919;48.630;9.000;2023-02-19T14:43:06;14.83;;;1.30;;
5785;SDS011;2919;48.630;9.000;2023-02-19T14:45:39;1.87;;;0.80;;
5785;SDS011;2919;48.630;9.000;2023-02-19T14:48:10;1.97;;;0.80;;
5785;SDS011;2919;48.630;9.000;2023-02-19T14:51:03;1.87;;;0.80;;
5785;SDS011;2919;48.630;9.000;2023-02-19T14:53:33;3.03;;;1.30;;
5785;SDS011;2919;48.630;9.000;2023-02-19T14:56:03;1.90;;;0.80;;
5785;SDS011;2919;48.630;9.000;2023-02-19T14:58:31;1.50;;;0.70;;
5785;SDS011;2919;48.630;9.000;2023-02-19T15:00:57;8.00;;;0.90;;
5785;SDS011;2919;48.630;9.000;2023-02-19T15:08:27;3.63;;;0.80;;
5785;SDS011;2919;48.630;9.000;2023-02-19T15:10:56;3.23;;;0.70;;
5785;SDS011;2919;48.630;9.000;2023-02-19T15:13:24;3.57;;;1.43;;
5785;SDS011;2919;48.630;9.000;2023-02-19T15:15:52;7.33;;;0.90;;
5785;SDS011;2919;48.630;9.000;2023-02-19T15:18:20;1.50;;;0.70;;
5785;SDS011;2919;48.630;9.000;2023-02-19T15:20:48;3.20;;;0.93;;
5785;SDS011;2919;48.630;9.000;2023-02-19T15:23:17;1.77;;;0.63;;
5785;SDS011;2919;48.630;9.000;2023-02-19T15:25:47;4.17;;;0.83;;
5785;SDS011;2919;48.630;9.000;2023-02-19T15:30:48;6.77;;;0.90;;
5785;SDS011;2919;48.630;9.000;2023-02-19T15:33:34;4.60;;;1.20;;
5785;SDS011;2919;48.630;9.000;2023-02-19T15:36:06;4.03;;;1.67;;
5785;SDS011;2919;48.630;9.000;2023-02-19T15:38:33;1.80;;;0.87;;
5785;SDS011;2919;48.630;9.000;2023-02-19T15:40:59;3.93;;;1.27;;
5785;SDS011;2919;48.630;9.000;2023-02-19T15:43:27;1.40;;;0.70;;
5785;SDS011;2919;48.630;9.000;2023-02-19T15:45:57;2.80;;;0.87;;
5785;SDS011;2919;48.630;9.000;2023-02-19T15:48:30;2.97;;;0.90;;
5785;SDS011;2919;48.630;9.000;2023-02-19T15:51:24;2.60;;;0.70;;
5785;SDS011;2919;48.630;9.000;2023-02-19T15:57:13;3.00;;;1.00;;
5785;SDS011;2919;48.630;9.000;2023-02-19T15:59:46;6.87;;;1.83;;
5785;SDS011;2919;48.630;9.000;2023-02-19T16:02:24;3.80;;;1.60;;
5785;SDS011;2919;48.630;9.000;2023-02-19T16:04:50;5.53;;;1.60;;
5785;SDS011;2919;48.630;9.000;2023-02-19T16:07:26;2.33;;;1.13;;
5785;SDS011;2919;48.630;9.000;2023-02-19T16:12:30;4.13;;;1.53;;
5785;SDS011;2919;48.630;9.000;2023-02-19T16:14:56;2.40;;;1.17;;
5785;SDS011;2919;48.630;9.000;2023-02-19T16:17:22;6.90;;;2.57;;
5785;SDS011;2919;48.630;9.000;2023-02-19T16:19:58;5.53;;;1.70;;
5785;SDS011;2919;48.630;9.000;2023-02-19T16:22:26;3.70;;;1.80;;
5785;SDS011;2919;48.630;9.000;2023-02-19T16:24:55;4.13;;;1.30;;
5785;SDS011;2919;48.630;9.000;2023-02-19T16:27:29;2.80;;;1.30;;
5785;SDS011;2919;48.630;9.000;2023-02-19T16:29:56;2.40;;;1.50;;
5785;SDS011;2919;48.630;9.000;2023-02-19T16:32:22;1.70;;;1.17;;
5785;SDS011;2919;48.630;9.000;2023-02-19T16:34:49;1.20;;;0.60;;
5785;SDS011;2919;48.630;9.000;2023-02-19T16:42:37;1.83;;;1.00;;
5785;SDS011;2919;48.630;9.000;2023-02-19T16:45:13;1.80;;;0.80;;
5785;SDS011;2919;48.630;9.000;2023-02-19T16:47:38;4.60;;;2.00;;
5785;SDS011;2919;48.630;9.000;2023-02-19T16:50:12;9.67;;;3.83;;
5785;SDS011;2919;48.630;9.000;2023-02-19T16:52:52;18.40;;;5.47;;
5785;SDS011;2919;48.630;9.000;2023-02-19T16:55:22;12.93;;;4.40;;
5785;SDS011;2919;48.630;9.000;2023-02-19T16:57:48;9.00;;;2.10;;
5785;SDS011;2919;48.630;9.000;2023-02-19T17:00:21;6.93;;;0.93;;
5785;SDS011;2919;48.630;9.000;2023-02-19T17:02:52;4.27;;;1.67;;
5785;SDS011;2919;48.630;9.000;2023-02-19T17:05:20;8.00;;;1.50;;
5785;SDS011;2919;48.630;9.000;2023-02-19T17:07:47;3.53;;;1.43;;
5785;SDS011;2919;48.630;9.000;2023-02-19T17:10:20;3.80;;;1.60;;
5785;SDS011;2919;48.630;9.000;2023-02-19T17:12:48;3.00;;;1.77;;
5785;SDS011;2919;48.630;9.000;2023-02-19T17:15:15;3.77;;;1.57;;
5785;SDS011;2919;48.630;9.000;2023-02-19T17:17:40;4.63;;;1.70;;
5785;SDS011;2919;48.630;9.000;2023-02-19T17:22:41;8.23;;;2.00;;
5785;SDS011;2919;48.630;9.000;2023-02-19T17:25:07;2.90;;;1.50;;
5785;SDS011;2919;48.630;9.000;2023-02-19T17:27:32;3.90;;;1.40;;
5785;SDS011;2919;48.630;9.000;2023-02-19T17:29:58;3.73;;;1.30;;
5785;SDS011;2919;48.630;9.000;2023-02-19T17:32:24;1.90;;;1.17;;
5785;SDS011;2919;48.630;9.000;2023-02-19T17:34:49;8.17;;;2.20;;
5785;SDS011;2919;48.630;9.000;2023-02-19T17:37:15;2.27;;;1.20;;
5785;SDS011;2919;48.630;9.000;2023-02-19T17:39:41;3.67;;;1.80;;
5785;SDS011;2919;48.630;9.000;2023-02-19T17:42:07;5.50;;;2.27;;
5785;SDS011;2919;48.630;9.000;2023-02-19T17:44:32;7.03;;;1.57;;
5785;SDS011;2919;48.630;9.000;2023-02-19T17:46:58;2.13;;;0.90;;
5785;SDS011;2919;48.630;9.000;2023-02-19T17:49:24;4.80;;;2.20;;
5785;SDS011;2919;48.630;9.000;2023-02-19T17:51:50;3.27;;;1.17;;
5785;SDS011;2919;48.630;9.000;2023-02-19T17:54:15;2.80;;;1.60;;
5785;SDS011;2919;48.630;9.000;2023-02-19T17:56:41;2.67;;;1.10;;
5785;SDS011;2919;48.630;9.000;2023-02-19T17:59:09;3.57;;;1.43;;
5785;SDS011;2919;48.630;9.000;2023-02-19T18:01:35;5.83;;;1.87;;
5785;SDS011;2919;48.630;9.000;2023-02-19T18:04:01;6.37;;;1.60;;
5785;SDS011;2919;48.630;9.000;2023-02-19T18:06:27;2.10;;;1.10;;
5785;SDS011;2919;48.630;9.000;2023-02-19T18:08:52;2.80;;;1.17;;
5785;SDS011;2919;48.630;9.000;2023-02-19T18:11:19;3.23;;;1.60;;
5785;SDS011;2919;48.630;9.000;2023-02-19T18:13:46;1.80;;;1.10;;